createdAt,value
2018-05-03T03:08:25.899Z,19.00
2018-05-03T03:14:39.384Z,18.86
2018-05-03T03:17:31.303Z,18.72
2018-05-03T03:24:15.774Z,18.88
2018-05-03T03:30:29.975Z,18.92
2018-05-03T03:33:16.696Z,18.82
2018-05-03T03:36:11.958Z,18.80
2018-05-03T03:38:57.973Z,18.49
2018-05-03T03:41:38.019Z,18.53
2018-05-03T03:44:24.265Z,18.52
2018-05-03T03:46:52.663Z,18.50
2018-05-03T03:49:21.040Z,18.53
2018-05-03T03:51:49.458Z,18.52
2018-05-03T03:54:17.920Z,18.53
2018-05-03T03:56:46.288Z,18.51
2018-05-03T03:59:14.675Z,18.53
2018-05-03T04:01:43.055Z,18.52
2018-05-03T04:04:11.428Z,18.34
2018-05-03T04:06:39.829Z,18.44
2018-05-03T04:09:08.296Z,18.38
2018-05-03T04:11:36.679Z,18.51
2018-05-03T04:14:05.048Z,18.56
2018-05-03T04:16:33.427Z,18.73
2018-05-03T04:19:19.731Z,18.77
2018-05-03T04:22:05.941Z,18.54
2018-05-03T04:24:52.229Z,18.69
2018-05-03T04:27:20.621Z,18.70
2018-05-03T04:29:48.979Z,18.93
2018-05-03T04:32:17.358Z,19.15
2018-05-03T04:34:45.773Z,19.06
2018-05-03T04:37:14.634Z,19.22
2018-05-03T04:39:43.026Z,19.34
2018-05-03T04:42:11.423Z,19.34
2018-05-03T04:44:40.851Z,19.39
2018-05-03T04:47:09.199Z,19.65
2018-05-03T04:49:37.585Z,19.73
2018-05-03T04:52:06.103Z,19.87
2018-05-03T04:54:34.513Z,19.90
2018-05-03T04:57:02.907Z,20.01
2018-05-03T04:59:31.271Z,20.19
2018-05-03T05:01:59.625Z,20.21
2018-05-03T05:04:28.427Z,20.36
2018-05-03T05:06:56.786Z,20.21
2018-05-03T05:09:25.165Z,20.47
2018-05-03T05:11:53.577Z,20.70
2018-05-03T05:14:21.968Z,20.97
2018-05-03T05:16:50.467Z,21.26
2018-05-03T05:19:18.847Z,21.51
2018-05-03T05:21:47.231Z,21.50
2018-05-03T05:24:16.043Z,21.94
2018-05-03T05:26:44.376Z,22.34
2018-05-03T05:29:12.919Z,22.72
2018-05-03T05:31:41.288Z,22.87
2018-05-03T05:34:09.678Z,22.51
2018-05-03T05:36:38.070Z,22.97
2018-05-03T05:39:06.436Z,23.14
2018-05-03T05:41:34.922Z,23.27
2018-05-03T05:44:03.285Z,23.37
2018-05-03T05:46:31.658Z,23.76
2018-05-03T05:49:00.043Z,24.20
2018-05-03T05:51:28.407Z,24.83
2018-05-03T05:53:57.159Z,25.44
2018-05-03T05:56:25.546Z,26.19
2018-05-03T05:58:54.017Z,27.14
2018-05-03T06:01:22.399Z,28.20
2018-05-03T06:03:50.776Z,29.53
2018-05-03T06:06:19.157Z,31.11
2018-05-03T06:08:47.615Z,31.44
2018-05-03T06:11:16.110Z,30.62
2018-05-03T06:13:44.598Z,29.81
2018-05-03T06:16:12.966Z,28.20
2018-05-03T06:18:41.502Z,27.85
2018-05-03T06:21:09.851Z,27.07
2018-05-03T06:23:38.217Z,27.13
2018-05-03T06:26:06.642Z,27.53
2018-05-03T06:28:35.004Z,27.64
2018-05-03T06:31:03.848Z,27.13
2018-05-03T06:33:32.271Z,27.06
2018-05-03T06:36:01.316Z,28.68
2018-05-03T06:38:29.676Z,30.96
2018-05-03T06:40:58.085Z,32.58
2018-05-03T06:43:26.464Z,33.89
2018-05-03T06:45:54.856Z,33.53
2018-05-03T06:48:23.270Z,32.53
2018-05-03T06:50:52.032Z,31.24
2018-05-03T06:53:20.395Z,29.87
2018-05-03T06:55:48.774Z,28.50
2018-05-03T06:58:17.161Z,28.27
2018-05-03T07:00:45.522Z,26.80
2018-05-03T07:03:14.010Z,26.29
2018-05-03T07:05:42.458Z,26.17
2018-05-03T07:08:10.807Z,25.83
2018-05-03T07:10:39.595Z,24.70
2018-05-03T07:13:08.448Z,25.22
2018-05-03T07:15:36.808Z,24.39
2018-05-03T07:18:05.190Z,24.18
2018-05-03T07:20:33.574Z,24.25
2018-05-03T07:23:01.937Z,25.02
2018-05-03T07:25:30.344Z,25.71
2018-05-03T07:27:58.733Z,25.61
2018-05-03T07:30:27.081Z,25.46
2018-05-03T07:32:55.452Z,25.51
2018-05-03T07:35:23.834Z,25.75
2018-05-03T07:37:52.240Z,25.26
2018-05-03T07:40:20.622Z,25.08
2018-05-03T07:42:48.980Z,24.94
2018-05-03T07:45:17.340Z,24.97
2018-05-03T07:47:45.846Z,25.14
2018-05-03T07:50:14.262Z,24.90
2018-05-03T07:52:42.606Z,25.04
2018-05-03T07:55:10.986Z,25.09
2018-05-03T07:57:39.578Z,25.17
2018-05-03T08:00:07.943Z,25.07
2018-05-03T08:02:36.438Z,25.22
2018-05-03T08:05:04.808Z,25.38
2018-05-03T08:07:33.161Z,25.19
2018-05-03T08:10:01.560Z,24.90
2018-05-03T08:12:29.939Z,25.46
2018-05-03T08:14:58.286Z,25.92
2018-05-03T08:17:26.707Z,26.05
2018-05-03T08:19:55.063Z,26.04
2018-05-03T08:22:23.483Z,27.09
2018-05-03T08:24:51.896Z,27.82
2018-05-03T08:27:20.266Z,29.32
2018-05-03T08:29:49.012Z,31.17
2018-05-03T08:32:17.393Z,33.23
2018-05-03T08:34:45.768Z,33.67
2018-05-03T08:37:14.648Z,34.67
2018-05-03T08:39:43.075Z,35.08
2018-05-03T08:42:11.834Z,35.82
2018-05-03T08:44:40.198Z,37.96
2018-05-03T08:47:08.571Z,38.85
2018-05-03T08:49:37.904Z,39.90
2018-05-03T08:52:06.264Z,39.94
2018-05-03T08:54:34.747Z,40.60
2018-05-03T08:57:03.101Z,41.25
2018-05-03T08:59:31.471Z,40.72
2018-05-03T09:01:59.887Z,39.71
2018-05-03T09:04:28.271Z,40.09
2018-05-03T09:06:56.625Z,40.32
2018-05-03T09:09:25.008Z,40.21
2018-05-03T09:11:53.385Z,40.81
2018-05-03T09:14:21.780Z,40.90
2018-05-03T09:16:50.263Z,40.52
2018-05-03T09:19:18.607Z,41.14
2018-05-03T09:21:46.969Z,41.34
2018-05-03T09:24:15.342Z,40.90
2018-05-03T09:26:44.179Z,40.54
2018-05-03T09:29:12.579Z,40.83
2018-05-03T09:31:40.950Z,40.39
2018-05-03T09:34:09.323Z,40.23
2018-05-03T09:36:37.694Z,40.72
2018-05-03T09:39:06.233Z,40.32
2018-05-03T09:41:34.541Z,40.37
2018-05-03T09:44:02.942Z,40.35
2018-05-03T09:46:31.355Z,41.31
2018-05-03T09:49:00.203Z,41.99
2018-05-03T09:51:28.580Z,41.35
2018-05-03T09:53:56.966Z,41.08
2018-05-03T09:56:25.362Z,40.97
2018-05-03T09:58:53.835Z,40.99
2018-05-03T10:01:22.216Z,40.77
2018-05-03T10:03:50.584Z,39.36
2018-05-03T10:06:19.049Z,40.70
2018-05-03T10:08:47.413Z,40.85
2018-05-03T10:11:15.778Z,42.50
2018-05-03T10:13:44.154Z,41.46
2018-05-03T10:16:12.548Z,40.89
2018-05-03T10:18:40.967Z,40.22
2018-05-03T10:21:09.434Z,40.63
2018-05-03T10:23:37.922Z,40.82
2018-05-03T10:26:06.311Z,39.15
2018-05-03T10:28:34.675Z,39.55
2018-05-03T10:31:03.067Z,38.97
2018-05-03T10:33:31.433Z,38.33
2018-05-03T10:35:59.895Z,38.04
2018-05-03T10:38:28.187Z,39.05
2018-05-03T10:40:56.596Z,39.00
2018-05-03T10:43:24.941Z,39.40
2018-05-03T10:45:53.343Z,37.91
2018-05-03T10:48:21.711Z,37.22
2018-05-03T10:50:50.086Z,35.85
2018-05-03T10:53:18.465Z,35.54
2018-05-03T10:55:46.838Z,35.87
2018-05-03T10:58:15.206Z,36.32
2018-05-03T11:00:43.591Z,36.78
2018-05-03T11:03:11.954Z,37.60
2018-05-03T11:05:40.315Z,36.30
2018-05-03T11:08:08.695Z,36.09
2018-05-03T11:10:37.058Z,36.43
2018-05-03T11:13:05.817Z,35.33
2018-05-03T11:15:34.206Z,34.40
2018-05-03T11:18:02.650Z,33.16
2018-05-03T11:20:31.075Z,32.45
2018-05-03T11:22:59.860Z,31.20
2018-05-03T11:25:28.221Z,30.63
2018-05-03T11:27:56.575Z,29.86
2018-05-03T11:30:24.949Z,29.92
2018-05-03T11:32:53.358Z,29.43
2018-05-03T11:35:21.724Z,28.69
2018-05-03T11:37:50.246Z,28.50
2018-05-03T11:40:18.993Z,28.20
2018-05-03T11:42:47.435Z,28.65
2018-05-03T11:45:15.741Z,28.88
2018-05-03T11:47:44.115Z,28.64
2018-05-03T11:50:12.511Z,28.43
2018-05-03T11:52:40.997Z,27.96
2018-05-03T11:55:09.370Z,27.98
2018-05-03T11:57:37.727Z,28.18
2018-05-03T12:00:06.119Z,28.42
2018-05-03T12:02:34.486Z,27.27
2018-05-03T12:05:02.852Z,26.74
2018-05-03T12:07:31.242Z,26.91
2018-05-03T12:09:59.641Z,27.69
2018-05-03T12:12:28.018Z,27.88
2018-05-03T12:14:56.512Z,28.15
2018-05-03T12:17:24.899Z,28.30
2018-05-03T12:19:53.381Z,28.12
2018-05-03T12:22:21.772Z,28.25
2018-05-03T12:24:50.120Z,28.43
2018-05-03T12:27:18.504Z,28.67
2018-05-03T12:29:46.889Z,28.89
2018-05-03T12:32:15.275Z,28.57
2018-05-03T12:34:43.751Z,28.08
2018-05-03T12:37:12.226Z,28.42
2018-05-03T12:39:40.598Z,29.00
2018-05-03T12:42:08.955Z,29.44
2018-05-03T12:44:37.348Z,28.90
2018-05-03T12:47:05.715Z,29.29
2018-05-03T12:49:34.098Z,29.67
2018-05-03T12:52:02.470Z,29.66
2018-05-03T12:54:30.990Z,29.40
2018-05-03T12:56:59.358Z,29.05
2018-05-03T12:59:27.740Z,28.49
2018-05-03T13:01:56.104Z,28.14
2018-05-03T13:04:24.462Z,27.92
2018-05-03T13:06:52.857Z,27.85
2018-05-03T13:09:21.247Z,27.85
2018-05-03T13:11:49.595Z,27.65
2018-05-03T13:14:18.001Z,27.08
2018-05-03T13:16:46.370Z,27.16
2018-05-03T13:19:14.760Z,27.04
2018-05-03T13:21:43.142Z,27.04
2018-05-03T13:24:11.494Z,27.18
2018-05-03T13:26:39.876Z,27.31
2018-05-03T13:29:08.597Z,26.78
2018-05-03T13:31:36.999Z,26.63
2018-05-03T13:34:05.759Z,26.52
2018-05-03T13:36:34.126Z,25.89
2018-05-03T13:39:02.506Z,25.53
2018-05-03T13:41:30.882Z,25.60
2018-05-03T13:43:59.378Z,25.22
2018-05-03T13:46:27.728Z,25.43
2018-05-03T13:48:56.083Z,25.52
2018-05-03T13:51:24.462Z,25.90
2018-05-03T13:53:52.838Z,25.67
2018-05-03T13:56:21.218Z,25.95
2018-05-03T13:58:49.592Z,25.73
2018-05-03T14:01:18.160Z,25.77
2018-05-03T14:03:46.918Z,25.10
2018-05-03T14:06:15.473Z,25.23
2018-05-03T14:08:43.845Z,24.93
2018-05-03T14:11:12.507Z,25.05
2018-05-03T14:13:41.286Z,25.23
2018-05-03T14:16:10.051Z,25.02
2018-05-03T14:18:38.542Z,25.15
2018-05-03T14:21:06.917Z,25.09
2018-05-03T14:23:35.270Z,25.07
2018-05-03T14:26:03.659Z,25.38
2018-05-03T14:28:32.041Z,25.53
2018-05-03T14:31:00.421Z,25.36
2018-05-03T14:33:28.846Z,25.73
2018-05-03T14:35:57.269Z,25.71
2018-05-03T14:38:25.630Z,25.83
2018-05-03T14:40:54.000Z,26.02
2018-05-03T14:43:22.365Z,25.91
2018-05-03T14:45:50.759Z,26.05
2018-05-03T14:48:19.162Z,26.10
2018-05-03T14:50:47.687Z,26.14
2018-05-03T14:53:16.034Z,25.74
2018-05-03T14:55:45.344Z,25.64
2018-05-03T14:58:13.762Z,25.46
2018-05-03T15:00:42.203Z,25.59
2018-05-03T15:03:10.583Z,25.79
2018-05-03T15:05:39.080Z,25.76
2018-05-03T15:08:07.831Z,25.26
2018-05-03T15:10:36.267Z,25.54
2018-05-03T15:13:04.636Z,25.44
2018-05-03T15:15:33.408Z,25.78
2018-05-03T15:18:01.788Z,26.07
2018-05-03T15:20:30.166Z,25.94
2018-05-03T15:22:58.529Z,25.64
2018-05-03T15:25:26.882Z,24.94
2018-05-03T15:27:55.283Z,24.77
2018-05-03T15:30:23.641Z,24.32
2018-05-03T15:32:52.072Z,24.54
2018-05-03T15:35:20.851Z,24.82
2018-05-03T15:37:49.228Z,24.93
2018-05-03T15:40:17.863Z,24.75
2018-05-03T15:42:46.276Z,24.75
2018-05-03T15:45:14.751Z,24.56
2018-05-03T15:47:43.177Z,24.32
2018-05-03T15:50:12.011Z,24.54
2018-05-03T15:52:40.358Z,24.86
2018-05-03T15:55:08.739Z,24.51
2018-05-03T15:57:37.129Z,24.64
2018-05-03T16:00:05.500Z,24.59
2018-05-03T16:02:33.947Z,24.78
2018-05-03T16:05:02.737Z,25.34
2018-05-03T16:07:31.522Z,25.05
2018-05-03T16:09:59.878Z,24.86
2018-05-03T16:12:28.260Z,25.10
2018-05-03T16:14:56.618Z,24.84
2018-05-03T16:17:24.999Z,24.55
2018-05-03T16:19:53.378Z,24.65
2018-05-03T16:22:21.742Z,24.04
2018-05-03T16:24:50.109Z,24.43
2018-05-03T16:27:18.515Z,24.40
2018-05-03T16:29:46.886Z,23.41
2018-05-03T16:32:15.271Z,23.57
2018-05-03T16:34:43.654Z,22.64
2018-05-03T16:37:12.032Z,22.27
2018-05-03T16:39:40.414Z,21.80
2018-05-03T16:42:08.795Z,21.76
2018-05-03T16:44:37.174Z,22.25
2018-05-03T16:47:05.533Z,22.36
2018-05-03T16:49:33.932Z,22.59
2018-05-03T16:52:02.298Z,22.83
2018-05-03T16:54:30.690Z,22.45
2018-05-03T16:56:59.081Z,22.28
2018-05-03T16:59:27.571Z,22.43
2018-05-03T17:01:55.865Z,21.75
2018-05-03T17:04:24.700Z,22.00
2018-05-03T17:06:53.295Z,21.65
2018-05-03T17:09:21.657Z,21.88
2018-05-03T17:11:50.142Z,21.97
2018-05-03T17:14:18.574Z,21.90
2018-05-03T17:16:47.367Z,21.67
2018-05-03T17:19:16.168Z,21.48
2018-05-03T17:21:44.549Z,20.85
2018-05-03T17:24:12.926Z,21.61
2018-05-03T17:26:41.758Z,21.23
2018-05-03T17:29:10.207Z,21.74
2018-05-03T17:31:38.576Z,20.84
2018-05-03T17:34:07.399Z,20.71
2018-05-03T17:36:36.242Z,21.09
2018-05-03T17:39:05.054Z,20.56
2018-05-03T17:41:33.505Z,20.69
2018-05-03T17:44:02.354Z,20.66
2018-05-03T17:46:30.737Z,19.79
2018-05-03T17:48:59.150Z,19.84
2018-05-03T17:51:28.012Z,20.10
2018-05-03T17:53:56.382Z,19.85
2018-05-03T17:56:24.981Z,19.20
2018-05-03T17:58:53.346Z,19.06
2018-05-03T18:01:21.763Z,19.64
2018-05-03T18:03:50.220Z,20.04
2018-05-03T18:06:19.080Z,19.51
2018-05-03T18:08:47.562Z,19.48
2018-05-03T18:11:16.000Z,19.60
2018-05-03T18:13:44.756Z,19.08
2018-05-03T18:16:13.190Z,19.27
2018-05-03T18:18:41.591Z,19.40
2018-05-03T18:21:10.074Z,19.20
2018-05-03T18:23:38.489Z,19.49
2018-05-03T18:26:07.034Z,19.48
2018-05-03T18:28:35.550Z,19.10
2018-05-03T18:31:03.919Z,18.74
2018-05-03T18:33:32.533Z,18.39
2018-05-03T18:36:01.427Z,18.86
2018-05-03T18:38:30.369Z,19.26
2018-05-03T18:40:59.342Z,18.31
2018-05-03T18:43:27.744Z,17.89
2018-05-03T18:45:56.252Z,18.08
2018-05-03T18:48:24.699Z,18.06
2018-05-03T18:50:53.810Z,17.73
2018-05-03T18:53:22.207Z,17.86
2018-05-03T18:55:50.605Z,18.04
2018-05-03T18:58:19.542Z,17.77
2018-05-03T19:00:48.282Z,17.67
2018-05-03T19:03:17.071Z,17.96
2018-05-03T19:05:45.842Z,17.90
2018-05-03T19:08:14.222Z,17.92
2018-05-03T19:10:42.735Z,17.75
2018-05-03T19:13:11.642Z,17.71
2018-05-03T19:15:40.383Z,17.84
2018-05-03T19:18:08.771Z,17.85
2018-05-03T19:20:37.232Z,17.77
2018-05-03T19:23:05.942Z,17.60
2018-05-03T19:25:34.332Z,17.60
2018-05-03T19:28:03.336Z,17.41
2018-05-03T19:30:32.642Z,17.24
2018-05-03T19:33:02.534Z,17.53
2018-05-03T19:35:31.994Z,16.89
2018-05-03T19:38:00.872Z,17.08
2018-05-03T19:40:29.656Z,17.07
2018-05-03T19:42:58.120Z,16.66
2018-05-03T19:45:26.549Z,16.89
2018-05-03T19:47:55.030Z,16.92
2018-05-03T19:50:23.448Z,17.34
2018-05-03T19:52:51.848Z,16.82
2018-05-03T19:55:20.356Z,16.66
2018-05-03T19:57:49.191Z,17.07
2018-05-03T20:00:17.789Z,16.79
2018-05-03T20:02:46.324Z,16.76
2018-05-03T20:05:14.686Z,16.45
2018-05-03T20:07:43.078Z,17.01
2018-05-03T20:10:11.488Z,16.87
2018-05-03T20:12:39.946Z,17.08
2018-05-03T20:15:08.388Z,16.91
2018-05-03T20:17:36.807Z,16.71
2018-05-03T20:20:05.311Z,16.77
2018-05-03T20:22:33.774Z,16.66
2018-05-03T20:25:02.165Z,16.49
2018-05-03T20:27:30.557Z,16.64
2018-05-03T20:29:59.322Z,15.72
2018-05-03T20:32:27.702Z,16.60
2018-05-03T20:34:56.079Z,16.77
2018-05-03T20:37:24.454Z,16.67
2018-05-03T20:39:52.829Z,17.08
2018-05-03T20:42:21.201Z,16.74
2018-05-03T20:44:49.559Z,16.40
2018-05-03T20:47:17.957Z,16.79
2018-05-03T20:49:47.304Z,16.58
2018-05-03T20:52:16.061Z,16.30
2018-05-03T20:54:44.435Z,16.11
2018-05-03T20:57:12.804Z,16.71
2018-05-03T20:59:41.183Z,16.35
2018-05-03T21:02:09.595Z,16.19
2018-05-03T21:04:37.967Z,16.19
2018-05-03T21:07:06.358Z,16.35
2018-05-03T21:09:35.159Z,16.86
2018-05-03T21:12:03.938Z,16.37
2018-05-03T21:14:32.739Z,16.23
2018-05-03T21:17:01.555Z,16.36
2018-05-03T21:19:29.922Z,15.96
2018-05-03T21:21:58.299Z,15.96
2018-05-03T21:24:26.699Z,16.25
2018-05-03T21:26:55.100Z,16.29
2018-05-03T21:29:23.470Z,16.10
2018-05-03T21:31:51.878Z,16.28
2018-05-03T21:34:20.254Z,16.20
2018-05-03T21:36:48.612Z,16.50
2018-05-03T21:39:16.989Z,16.62
2018-05-03T21:41:45.367Z,16.69
2018-05-03T21:44:13.733Z,16.85
2018-05-03T21:46:42.138Z,17.20
2018-05-03T21:49:10.524Z,16.43
2018-05-03T21:51:38.881Z,16.31
2018-05-03T21:54:07.257Z,16.47
2018-05-03T21:56:35.628Z,16.23
2018-05-03T21:59:03.986Z,16.21
2018-05-03T22:01:32.397Z,16.41
2018-05-03T22:04:01.034Z,16.39
2018-05-03T22:06:29.322Z,16.23
2018-05-03T22:08:57.745Z,16.30
2018-05-03T22:11:26.102Z,16.68
2018-05-03T22:13:54.555Z,16.65
2018-05-03T22:16:22.882Z,16.54
2018-05-03T22:18:51.258Z,16.28
2018-05-03T22:21:19.652Z,16.54
2018-05-03T22:23:48.036Z,16.04
2018-05-03T22:26:16.390Z,16.27
2018-05-03T22:28:44.785Z,16.36
2018-05-03T22:31:14.178Z,16.45
2018-05-03T22:33:42.554Z,16.46
2018-05-03T22:36:11.126Z,16.51
2018-05-03T22:38:39.511Z,16.67
2018-05-03T22:41:07.875Z,16.32
2018-05-03T22:43:36.271Z,16.42
2018-05-03T22:46:04.646Z,16.31
2018-05-03T22:48:33.003Z,16.12
2018-05-03T22:51:01.373Z,16.16
2018-05-03T22:53:29.796Z,16.02
2018-05-03T22:55:58.153Z,16.11
2018-05-03T22:58:26.608Z,15.90
2018-05-03T23:00:55.096Z,16.09
2018-05-03T23:03:23.472Z,16.27
2018-05-03T23:05:51.880Z,16.36
2018-05-03T23:08:20.258Z,16.42
2018-05-03T23:10:48.630Z,16.49
2018-05-03T23:13:17.002Z,16.27
2018-05-03T23:15:45.387Z,16.17
2018-05-03T23:18:13.750Z,16.30
2018-05-03T23:20:42.167Z,16.16
2018-05-03T23:23:10.738Z,16.24
2018-05-03T23:25:39.088Z,16.21
2018-05-03T23:28:07.457Z,15.94
2018-05-03T23:30:35.882Z,16.05
2018-05-03T23:33:04.238Z,16.08
2018-05-03T23:35:32.585Z,16.15
2018-05-03T23:38:00.981Z,16.14
2018-05-03T23:40:29.584Z,16.13
2018-05-03T23:42:57.946Z,16.07
2018-05-03T23:45:26.316Z,15.99
2018-05-03T23:47:54.709Z,16.11
2018-05-03T23:50:23.076Z,15.96
2018-05-03T23:52:51.510Z,15.98
2018-05-03T23:55:19.931Z,15.82
2018-05-03T23:57:48.376Z,15.87
